Time,TemperatureF,DewpointF,PressureIn,WindDirection,WindDirectionDegrees,WindSpeedMPH,WindSpeedGustMPH,Humidity,HourlyPrecipIn,Conditions,Clouds,dailyrainin,SoftwareType,DateUTC
2013-01-19 00:00:00,28.4,16.3,30.08,SW,225,5.8,5.8,60,0.00,CLR,,0.00,WeatherDisplay:10.37,2013-01-19 05:00:00,
2013-01-19 00:01:00,28.2,16.5,30.08,SW,225,5.8,5.8,61,0.00,CLR,,0.00,WeatherDisplay:10.37,2013-01-19 05:01:00,
2013-01-19 00:02:00,28.2,16.5,30.08,SW,225,3.5,3.8,61,0.00,CLR,,0.00,WeatherDisplay:10.37,2013-01-19 05:02:00,
2013-01-19 00:05:00,28.2,16.5,30.08,SW,225,4.7,4.7,61,0.00,CLR,,0.00,WeatherDisplay:10.37,2013-01-19 05:05:00,
2013-01-19 00:10:00,28.4,16.3,30.08,SW,225,4.6,4.6,60,0.00,CLR,,0.00,WeatherDisplay:10.37,2013-01-19 05:10:00,
2013-01-19 00:15:00,28.4,16.3,30.07,SW,225,3.5,3.5,60,0.00,CLR,,0.00,WeatherDisplay:10.37,2013-01-19 05:15:00,
2013-01-19 00:20:00,28.4,16.3,30.07,SW,225,3.5,3.5,60,0.00,CLR,,0.00,WeatherDisplay:10.37,2013-01-19 05:20:00,
2013-01-19 00:25:00,28.4,16.3,30.07,West,270,6.9,6.9,60,0.00,CLR,,0.00,WeatherDisplay:10.37,2013-01-19 05:25:00,
2013-01-19 00:30:00,28.6,16.5,30.07,SSW,202,4.6,4.6,60,0.00,CLR,,0.00,WeatherDisplay:10.37,2013-01-19 05:30:00,
2013-01-19 00:35:00,28.6,16.5,30.07,WSW,248,5.8,5.8,60,0.00,CLR,,0.00,WeatherDisplay:10.37,2013-01-19 05:35:00,
2013-01-19 00:40:00,28.6,16.5,30.06,WSW,248,5.8,5.8,60,0.00,CLR,,0.00,WeatherDisplay:10.37,2013-01-19 05:40:00,
2013-01-19 00:45:00,28.8,16.6,30.06,SW,225,5.8,5.8,60,0.00,CLR,,0.00,WeatherDisplay:10.37,2013-01-19 05:45:00,
2013-01-19 00:50:00,29.1,16.5,30.06,SW,225,7.3,7.3,59,0.00,CLR,,0.00,WeatherDisplay:10.37,2013-01-19 05:50:00,
2013-01-19 00:55:00,29.1,16.1,30.06,SW,225,5.3,5.3,58,0.00,CLR,,0.00,WeatherDisplay:10.37,2013-01-19 05:55:00,
2013-01-19 01:00:00,29.3,15.9,30.06,SSW,202,4.7,4.7,57,0.00,CLR,,0.00,WeatherDisplay:10.37,2013-01-19 06:00:00,
2013-01-19 01:05:00,29.3,15.9,30.05,SW,225,6.9,6.9,57,0.00,CLR,,0.00,WeatherDisplay:10.37,2013-01-19 06:05:00,
2013-01-19 01:10:00,29.5,15.7,30.05,SW,225,5.8,5.8,56,0.00,CLR,,0.00,WeatherDisplay:10.37,2013-01-19 06:10:00,
2013-01-19 01:15:00,29.7,15.5,30.05,SW,225,6.9,6.9,55,0.00,CLR,,0.00,WeatherDisplay:10.37,2013-01-19 06:15:00,
2013-01-19 01:20:00,29.7,15.5,30.05,SW,225,5.8,5.8,55,0.00,CLR,,0.00,WeatherDisplay:10.37,2013-01-19 06:20:00,
2013-01-19 01:25:00,29.5,15.3,30.05,SW,225,6.3,6.3,55,0.00,CLR,,0.00,WeatherDisplay:10.37,2013-01-19 06:25:00,
2013-01-19 01:30:00,29.7,15.5,30.05,SW,225,6.9,7.6,55,0.00,CLR,,0.00,WeatherDisplay:10.37,2013-01-19 06:30:00,
2013-01-19 01:35:00,29.5,15.3,30.05,SSW,202,7.3,7.3,55,0.00,CLR,,0.00,WeatherDisplay:10.37,2013-01-19 06:35:00,
2013-01-19 01:40:00,29.7,15.1,30.05,SW,225,5.3,5.3,54,0.00,CLR,,0.00,WeatherDisplay:10.37,2013-01-19 06:40:00,
2013-01-19 01:45:00,29.7,15.1,30.05,WSW,248,5.8,5.8,54,0.00,CLR,,0.00,WeatherDisplay:10.37,2013-01-19 06:45:00,
2013-01-19 01:51:00,30.2,14.7,30.04,SW,225,6.9,6.9,52,0.00,CLR,,0.00,WeatherDisplay:10.37,2013-01-19 06:51:00,
2013-01-19 01:56:00,30.4,14.9,30.04,SW,225,6.9,6.9,52,0.00,CLR,,0.00,WeatherDisplay:10.37,2013-01-19 06:56:00,
2013-01-19 02:02:00,30.7,14.2,30.05,SW,225,9.2,9.2,50,0.00,CLR,,0.00,WeatherDisplay:10.37,2013-01-19 07:02:00,
2013-01-19 02:07:00,30.9,14.4,30.05,SW,225,5.8,5.8,50,0.00,CLR,,0.00,WeatherDisplay:10.37,2013-01-19 07:07:00,
2013-01-19 02:12:00,30.9,14.4,30.05,West,270,6.9,6.9,50,0.00,CLR,,0.00,WeatherDisplay:10.37,2013-01-19 07:12:00,
2013-01-19 02:17:00,31.1,14.1,30.05,WSW,248,11.4,11.4,49,0.00,OVC,,0.00,WeatherDisplay:10.37,2013-01-19 07:17:00,
2013-01-19 02:22:00,31.5,14.5,30.05,WSW,248,8.1,8.1,49,0.00,OVC,,0.00,WeatherDisplay:10.37,2013-01-19 07:22:00,
2013-01-19 02:27:00,31.8,14.3,30.05,SW,225,6.9,6.9,48,0.00,OVC,,0.00,WeatherDisplay:10.37,2013-01-19 07:27:00,
2013-01-19 02:32:00,31.8,14.3,30.05,SW,225,5.8,5.8,48,0.00,OVC,,0.00,WeatherDisplay:10.37,2013-01-19 07:32:00,
2013-01-19 02:37:00,31.8,14.3,30.05,SW,225,5.8,5.8,48,0.00,OVC,,0.00,WeatherDisplay:10.37,2013-01-19 07:37:00,
2013-01-19 02:42:00,32.0,14.0,30.05,SW,225,6.9,6.9,47,0.00,OVC,,0.00,WeatherDisplay:10.37,2013-01-19 07:42:00,
2013-01-19 02:47:00,32.4,14.4,30.05,SW,225,7.3,7.3,47,0.00,OVC,,0.00,WeatherDisplay:10.37,2013-01-19 07:47:00,
2013-01-19 02:53:00,32.5,14.0,30.04,SW,225,10.4,10.4,46,0.00,OVC,,0.00,WeatherDisplay:10.37,2013-01-19 07:53:00,
2013-01-19 02:58:00,32.5,14.0,30.04,SW,225,8.1,8.1,46,0.00,OVC,,0.00,WeatherDisplay:10.37,2013-01-19 07:58:00,
2013-01-19 03:03:00,32.5,14.0,30.04,WSW,248,10.4,10.4,46,0.00,OVC,,0.00,WeatherDisplay:10.37,2013-01-19 08:03:00,
2013-01-19 03:08:00,32.5,13.5,30.04,SW,225,10.4,10.4,45,0.00,OVC,,0.00,WeatherDisplay:10.37,2013-01-19 08:08:00,
2013-01-19 03:13:00,32.5,13.5,30.04,SW,225,8.1,8.1,45,0.00,OVC,,0.00,WeatherDisplay:10.37,2013-01-19 08:13:00,
2013-01-19 03:18:00,32.5,13.5,30.04,SSW,202,9.2,9.2,45,0.00,OVC,,0.00,WeatherDisplay:10.37,2013-01-19 08:18:00,
2013-01-19 03:23:00,32.7,13.7,30.04,WSW,248,6.8,6.8,45,0.00,OVC,,0.00,WeatherDisplay:10.37,2013-01-19 08:23:00,
2013-01-19 03:28:00,32.5,13.5,30.04,SW,225,5.8,5.8,45,0.00,OVC,,0.00,WeatherDisplay:10.37,2013-01-19 08:28:00,
2013-01-19 03:33:00,32.5,13.5,30.04,SW,225,5.8,5.8,45,0.00,OVC,,0.00,WeatherDisplay:10.37,2013-01-19 08:33:00,
2013-01-19 03:38:00,32.7,13.2,30.03,SSW,202,8.8,8.8,44,0.00,OVC,,0.00,WeatherDisplay:10.37,2013-01-19 08:38:00,
2013-01-19 03:43:00,32.7,13.2,30.03,WSW,248,9.2,9.2,44,0.00,OVC,,0.00,WeatherDisplay:10.37,2013-01-19 08:43:00,
2013-01-19 03:48:00,32.4,13.4,30.03,SW,225,6.8,6.8,45,0.00,OVC,,0.00,WeatherDisplay:10.37,2013-01-19 08:48:00,
2013-01-19 03:53:00,32.4,13.4,30.03,SW,225,5.8,5.8,45,0.00,OVC,,0.00,WeatherDisplay:10.37,2013-01-19 08:53:00,
2013-01-19 03:59:00,32.4,13.4,30.03,SW,225,8.3,8.3,45,0.00,OVC,,0.00,WeatherDisplay:10.37,2013-01-19 08:59:00,
2013-01-19 04:04:00,32.4,13.4,30.02,SW,225,5.8,5.8,45,0.00,OVC,,0.00,WeatherDisplay:10.37,2013-01-19 09:04:00,
2013-01-19 04:09:00,32.2,13.7,30.02,SW,225,6.9,6.9,46,0.00,OVC,,0.00,WeatherDisplay:10.37,2013-01-19 09:09:00,
2013-01-19 04:14:00,32.7,13.2,30.02,SW,225,8.1,8.1,44,0.00,OVC,,0.00,WeatherDisplay:10.37,2013-01-19 09:14:00,
2013-01-19 04:19:00,32.2,13.2,30.02,SW,225,8.8,8.8,45,0.00,FEW,,0.00,WeatherDisplay:10.37,2013-01-19 09:19:00,
2013-01-19 04:24:00,32.4,13.4,30.02,SW,225,8.1,8.1,45,0.00,FEW,,0.00,WeatherDisplay:10.37,2013-01-19 09:24:00,
2013-01-19 04:29:00,32.4,13.4,30.02,SW,225,6.9,6.9,45,0.00,FEW,,0.00,WeatherDisplay:10.37,2013-01-19 09:29:00,
2013-01-19 04:34:00,32.5,13.5,30.02,SW,225,9.2,9.2,45,0.00,FEW,,0.00,WeatherDisplay:10.37,2013-01-19 09:34:00,
2013-01-19 04:39:00,32.5,13.5,30.02,SSW,202,6.9,6.9,45,0.00,FEW,,0.00,WeatherDisplay:10.37,2013-01-19 09:39:00,
2013-01-19 04:44:00,32.5,14.0,30.02,SW,225,6.9,6.9,46,0.00,FEW,,0.00,WeatherDisplay:10.37,2013-01-19 09:44:00,
2013-01-19 04:49:00,32.5,14.0,30.02,SW,225,11.5,11.5,46,0.00,FEW,,0.00,WeatherDisplay:10.37,2013-01-19 09:49:00,
2013-01-19 04:54:00,32.5,14.0,30.01,SW,225,13.8,13.8,46,0.00,FEW,,0.00,WeatherDisplay:10.37,2013-01-19 09:54:00,
2013-01-19 04:59:00,32.5,14.0,30.01,SW,225,8.1,8.1,46,0.00,FEW,,0.00,WeatherDisplay:10.37,2013-01-19 09:59:00,
2013-01-19 05:04:00,32.5,14.0,30.01,SW,225,5.8,5.8,46,0.00,FEW,,0.00,WeatherDisplay:10.37,2013-01-19 10:04:00,
2013-01-19 05:09:00,32.5,14.0,30.01,SW,225,8.3,8.3,46,0.00,FEW,,0.00,WeatherDisplay:10.37,2013-01-19 10:09:00,
2013-01-19 05:14:00,32.9,13.9,30.01,SSW,202,5.8,5.8,45,0.00,FEW,,0.00,WeatherDisplay:10.37,2013-01-19 10:14:00,
2013-01-19 05:19:00,32.7,13.7,30.01,WSW,248,8.1,8.1,45,0.00,CLR,,0.00,WeatherDisplay:10.37,2013-01-19 10:19:00,
2013-01-19 05:24:00,32.7,13.7,30.01,SSW,202,6.9,6.9,45,0.00,CLR,,0.00,WeatherDisplay:10.37,2013-01-19 10:24:00,
2013-01-19 05:29:00,32.7,14.2,30.00,WSW,248,8.1,8.1,46,0.00,CLR,,0.00,WeatherDisplay:10.37,2013-01-19 10:29:00,
2013-01-19 05:34:00,32.9,14.4,30.00,WSW,248,6.9,6.9,46,0.00,CLR,,0.00,WeatherDisplay:10.37,2013-01-19 10:34:00,
2013-01-19 05:39:00,32.9,14.4,30.01,SW,225,7.3,7.3,46,0.00,CLR,,0.00,WeatherDisplay:10.37,2013-01-19 10:39:00,
2013-01-19 05:44:00,32.9,14.4,30.01,SW,225,5.8,5.8,46,0.00,CLR,,0.00,WeatherDisplay:10.37,2013-01-19 10:44:00,
2013-01-19 05:49:00,32.9,14.4,30.01,SW,225,6.9,6.9,46,0.00,CLR,,0.00,WeatherDisplay:10.37,2013-01-19 10:49:00,
2013-01-19 05:54:00,33.3,14.2,30.00,SW,225,9.2,9.2,45,0.00,CLR,,0.00,WeatherDisplay:10.37,2013-01-19 10:54:00,
2013-01-19 05:59:00,33.1,14.5,30.00,SW,225,6.3,6.3,46,0.00,CLR,,0.00,WeatherDisplay:10.37,2013-01-19 10:59:00,
2013-01-19 06:04:00,33.4,14.3,30.00,WSW,248,8.1,8.1,45,0.00,CLR,,0.00,WeatherDisplay:10.37,2013-01-19 11:04:00,
2013-01-19 06:09:00,33.4,14.3,30.00,SSW,202,9.2,9.2,45,0.00,CLR,,0.00,WeatherDisplay:10.37,2013-01-19 11:09:00,
2013-01-19 06:14:00,33.3,14.7,30.01,SW,225,8.1,8.1,46,0.00,CLR,,0.00,WeatherDisplay:10.37,2013-01-19 11:14:00,
2013-01-19 07:47:00,34.2,17.0,29.99,SW,225,5.8,5.8,49,0.00,CLR,,0.00,WeatherDisplay:10.37,2013-01-19 12:47:00,
2013-01-19 07:48:00,34.2,17.0,29.99,SW,225,5.8,5.8,49,0.00,CLR,,0.00,WeatherDisplay:10.37,2013-01-19 12:48:00,
2013-01-19 07:50:00,34.2,17.0,29.99,SW,225,5.8,5.8,49,0.00,CLR,,0.00,WeatherDisplay:10.37,2013-01-19 12:50:00,
2013-01-19 07:51:00,34.2,17.0,29.99,SW,225,5.8,5.8,49,0.00,CLR,,0.00,WeatherDisplay:10.37,2013-01-19 12:51:00,
2013-01-19 07:56:00,34.9,17.2,29.99,WSW,248,9.2,9.2,48,0.00,CLR,,0.00,WeatherDisplay:10.37,2013-01-19 12:56:00,
2013-01-19 08:01:00,34.9,17.7,29.99,SSW,202,7.8,7.8,49,0.00,CLR,,0.00,WeatherDisplay:10.37,2013-01-19 13:01:00,
2013-01-19 08:06:00,35.2,17.4,29.99,WSW,248,10.4,10.4,48,0.00,CLR,,0.00,WeatherDisplay:10.37,2013-01-19 13:06:00,
2013-01-19 08:11:00,35.6,17.3,29.99,SW,225,8.1,8.1,47,0.00,CLR,,0.00,WeatherDisplay:10.37,2013-01-19 13:11:00,
2013-01-19 08:16:00,35.8,17.5,29.99,SSW,202,8.1,8.1,47,0.00,CLR,,0.00,WeatherDisplay:10.37,2013-01-19 13:16:00,
2013-01-19 08:21:00,36.3,18.0,29.99,SW,225,10.4,10.4,47,0.00,CLR,,0.00,WeatherDisplay:10.37,2013-01-19 13:21:00,
2013-01-19 08:26:00,36.5,17.7,29.99,SW,225,7.8,7.8,46,0.00,CLR,,0.00,WeatherDisplay:10.37,2013-01-19 13:26:00,
2013-01-19 08:31:00,36.5,17.7,29.99,SW,225,6.3,6.3,46,0.00,CLR,,0.00,WeatherDisplay:10.37,2013-01-19 13:31:00,
2013-01-19 08:36:00,37.4,18.0,29.99,SW,225,9.2,9.2,45,0.00,CLR,,0.00,WeatherDisplay:10.37,2013-01-19 13:36:00,
2013-01-19 08:41:00,37.6,18.2,30.00,SW,225,8.1,8.1,45,0.00,CLR,,0.00,WeatherDisplay:10.37,2013-01-19 13:41:00,
2013-01-19 08:47:00,37.8,18.3,30.00,SW,225,6.9,6.9,45,0.00,CLR,,0.00,WeatherDisplay:10.37,2013-01-19 13:47:00,
2013-01-19 08:52:00,39.6,18.4,29.99,SSW,202,15.0,15.0,42,0.00,CLR,,0.00,WeatherDisplay:10.37,2013-01-19 13:52:00,
2013-01-19 08:57:00,39.6,18.4,29.99,SSW,202,10.9,10.9,42,0.00,CLR,,0.00,WeatherDisplay:10.37,2013-01-19 13:57:00,
2013-01-19 09:02:00,40.6,18.7,29.99,WSW,248,18.4,18.4,41,0.00,CLR,,0.00,WeatherDisplay:10.37,2013-01-19 14:02:00,
2013-01-19 09:07:00,40.8,18.9,29.99,SW,225,19.6,19.6,41,0.00,CLR,,0.00,WeatherDisplay:10.37,2013-01-19 14:07:00,
2013-01-19 09:12:00,41.2,18.7,29.99,WSW,248,15.0,15.0,40,0.00,CLR,,0.00,WeatherDisplay:10.37,2013-01-19 14:12:00,
2013-01-19 09:17:00,41.4,18.9,29.99,WSW,248,13.8,13.8,40,0.00,FEW,,0.00,WeatherDisplay:10.37,2013-01-19 14:17:00,
2013-01-19 09:22:00,41.9,19.3,29.99,SW,225,24.8,24.8,40,0.00,FEW,,0.00,WeatherDisplay:10.37,2013-01-19 14:22:00,
2013-01-19 09:27:00,41.9,18.7,29.99,SSW,202,16.6,16.6,39,0.00,FEW,,0.00,WeatherDisplay:10.37,2013-01-19 14:27:00,
2013-01-19 09:32:00,41.9,18.7,29.99,SW,225,19.6,19.6,39,0.00,FEW,,0.00,WeatherDisplay:10.37,2013-01-19 14:32:00,
2013-01-19 09:37:00,42.1,18.9,29.99,SSW,202,14.0,14.0,39,0.00,FEW,,0.00,WeatherDisplay:10.37,2013-01-19 14:37:00,
2013-01-19 09:42:00,42.3,19.1,30.00,WSW,248,13.8,13.8,39,0.00,FEW,,0.00,WeatherDisplay:10.37,2013-01-19 14:42:00,
2013-01-19 09:48:00,42.4,19.2,30.00,West,270,19.6,19.6,39,0.00,FEW,,0.00,WeatherDisplay:10.37,2013-01-19 14:48:00,
2013-01-19 09:53:00,42.8,19.5,30.00,SSW,202,19.6,19.6,39,0.00,FEW,,0.00,WeatherDisplay:10.37,2013-01-19 14:53:00,
2013-01-19 09:58:00,43.0,19.7,30.00,WSW,248,18.4,18.4,39,0.00,FEW,,0.00,WeatherDisplay:10.37,2013-01-19 14:58:00,
2013-01-19 10:03:00,43.2,19.9,29.99,West,270,15.0,15.0,39,0.00,FEW,,0.00,WeatherDisplay:10.37,2013-01-19 15:03:00,
2013-01-19 10:08:00,43.5,19.5,29.99,WSW,248,19.6,19.6,38,0.00,FEW,,0.00,WeatherDisplay:10.37,2013-01-19 15:08:00,
2013-01-19 10:13:00,43.5,19.5,29.99,SW,225,17.3,17.3,38,0.00,FEW,,0.00,WeatherDisplay:10.37,2013-01-19 15:13:00,
2013-01-19 10:18:00,43.9,19.9,29.99,WSW,248,18.6,18.6,38,0.00,CLR,,0.00,WeatherDisplay:10.37,2013-01-19 15:18:00,
2013-01-19 10:23:00,43.9,19.9,29.99,SW,225,24.2,24.2,38,0.00,CLR,,0.00,WeatherDisplay:10.37,2013-01-19 15:23:00,
2013-01-19 10:28:00,44.1,20.1,29.99,SW,225,17.6,17.6,38,0.00,CLR,,0.00,WeatherDisplay:10.37,2013-01-19 15:28:00,
2013-01-19 10:33:00,44.1,20.1,29.99,West,270,21.9,21.9,38,0.01,RA,,0.01,WeatherDisplay:10.37,2013-01-19 15:33:00,
2013-01-19 10:38:00,44.4,20.3,29.99,SW,225,24.8,24.8,38,0.01,RA,,0.01,WeatherDisplay:10.37,2013-01-19 15:38:00,
2013-01-19 10:43:00,44.4,20.3,29.99,SW,225,24.3,24.3,38,0.01,CLR,,0.01,WeatherDisplay:10.37,2013-01-19 15:43:00,
2013-01-19 10:48:00,44.8,20.7,29.99,WSW,248,21.9,21.9,38,0.01,CLR,,0.01,WeatherDisplay:10.37,2013-01-19 15:48:00,
2013-01-19 10:53:00,45.1,21.0,29.99,SW,225,19.1,19.1,38,0.01,CLR,,0.01,WeatherDisplay:10.37,2013-01-19 15:53:00,
2013-01-19 10:58:00,45.1,21.0,29.99,WSW,248,20.7,20.7,38,0.01,CLR,,0.01,WeatherDisplay:10.37,2013-01-19 15:58:00,
2013-01-19 11:03:00,45.3,20.5,29.98,WSW,248,25.3,25.3,37,0.01,CLR,,0.01,WeatherDisplay:10.37,2013-01-19 16:03:00,
2013-01-19 11:08:00,45.9,21.1,29.98,SW,225,15.0,15.0,37,0.01,CLR,,0.01,WeatherDisplay:10.37,2013-01-19 16:08:00,
2013-01-19 11:13:00,45.9,21.1,29.98,SW,225,24.2,24.2,37,0.01,CLR,,0.01,WeatherDisplay:10.37,2013-01-19 16:13:00,
2013-01-19 11:18:00,46.0,21.1,29.98,WSW,248,17.3,17.3,37,0.01,CLR,,0.01,WeatherDisplay:10.37,2013-01-19 16:18:00,
2013-01-19 11:23:00,46.6,21.0,29.98,ESE,112,16.1,16.1,36,0.02,RA,,0.02,WeatherDisplay:10.37,2013-01-19 16:23:00,
2013-01-19 11:28:00,46.6,21.7,29.96,SSW,202,17.3,17.3,37,0.02,RA,,0.02,WeatherDisplay:10.37,2013-01-19 16:28:00,
2013-01-19 11:33:00,47.1,21.5,29.96,SSW,202,16.1,16.1,36,0.01,CLR,,0.02,WeatherDisplay:10.37,2013-01-19 16:33:00,
2013-01-19 11:38:00,47.5,21.8,29.96,SW,225,15.0,15.0,36,0.01,CLR,,0.02,WeatherDisplay:10.37,2013-01-19 16:38:00,
2013-01-19 11:43:00,47.5,21.2,29.96,SW,225,18.4,18.4,35,0.01,CLR,,0.02,WeatherDisplay:10.37,2013-01-19 16:43:00,
2013-01-19 11:48:00,47.5,21.8,29.96,SW,225,14.0,14.0,36,0.01,CLR,,0.02,WeatherDisplay:10.37,2013-01-19 16:48:00,
2013-01-19 11:53:00,47.8,21.4,29.95,WSW,248,20.2,20.2,35,0.01,CLR,,0.02,WeatherDisplay:10.37,2013-01-19 16:53:00,
2013-01-19 11:58:00,47.5,21.2,29.95,SW,225,19.6,19.6,35,0.01,CLR,,0.02,WeatherDisplay:10.37,2013-01-19 16:58:00,
2013-01-19 12:04:00,47.8,21.4,29.93,West,270,23.0,23.0,35,0.01,CLR,,0.02,WeatherDisplay:10.37,2013-01-19 17:04:00,
2013-01-19 12:09:00,48.0,21.6,29.93,West,267,23.0,23.0,35,0.00,CLR,,0.02,WeatherDisplay:10.37,2013-01-19 17:09:00,
2013-01-19 12:14:00,48.6,20.8,29.93,WSW,253,16.0,23.0,33,0.00,CLR,,0.02,WeatherDisplay:10.37,2013-01-19 17:14:00,
2013-01-19 12:20:00,48.7,20.8,29.93,SW,225,19.6,19.6,33,0.01,CLR,,0.02,WeatherDisplay:10.37,2013-01-19 17:20:00,
2013-01-19 12:26:00,49.1,21.2,29.92,SW,225,20.7,20.7,33,0.00,CLR,,0.02,WeatherDisplay:10.37,2013-01-19 17:26:00,
2013-01-19 12:31:00,49.3,20.6,29.92,WNW,292,18.4,18.4,32,0.00,CLR,,0.02,WeatherDisplay:10.37,2013-01-19 17:31:00,
2013-01-19 12:36:00,49.6,20.9,29.92,SW,225,18.4,18.4,32,0.00,CLR,,0.02,WeatherDisplay:10.37,2013-01-19 17:36:00,
2013-01-19 12:42:00,50.0,20.5,29.92,SW,225,10.4,10.4,31,0.00,CLR,,0.02,WeatherDisplay:10.37,2013-01-19 17:42:00,
2013-01-19 12:47:00,50.0,20.5,29.92,WSW,248,20.7,20.7,31,0.00,CLR,,0.02,WeatherDisplay:10.37,2013-01-19 17:47:00,
2013-01-19 12:53:00,50.7,21.1,29.91,SW,225,12.7,12.7,31,0.00,CLR,,0.02,WeatherDisplay:10.37,2013-01-19 17:53:00,
2013-01-19 12:58:00,50.4,20.9,29.91,WSW,248,12.7,12.7,31,0.00,CLR,,0.02,WeatherDisplay:10.37,2013-01-19 17:58:00,
2013-01-19 13:03:00,51.1,19.9,29.90,SW,225,19.6,19.6,29,0.00,CLR,,0.02,WeatherDisplay:10.37,2013-01-19 18:03:00,
2013-01-19 13:08:00,50.7,20.4,29.90,West,270,11.5,11.5,30,0.00,CLR,,0.02,WeatherDisplay:10.37,2013-01-19 18:08:00,
2013-01-19 13:13:00,52.2,21.7,29.89,SW,225,12.4,12.4,30,0.00,CLR,,0.02,WeatherDisplay:10.37,2013-01-19 18:13:00,
2013-01-19 13:18:00,52.0,21.5,29.89,SSW,202,9.2,9.2,30,0.00,CLR,,0.02,WeatherDisplay:10.37,2013-01-19 18:18:00,
2013-01-19 13:23:00,51.6,19.5,29.89,SSW,202,19.6,19.6,28,0.00,CLR,,0.02,WeatherDisplay:10.37,2013-01-19 18:23:00,
2013-01-19 13:28:00,52.7,20.5,29.89,SW,225,10.4,10.4,28,0.00,CLR,,0.02,WeatherDisplay:10.37,2013-01-19 18:28:00,
2013-01-19 13:34:00,52.2,19.2,29.89,SW,225,18.4,18.4,27,0.00,CLR,,0.02,WeatherDisplay:10.37,2013-01-19 18:34:00,
2013-01-19 13:39:00,52.0,19.9,29.88,SW,225,20.7,20.7,28,0.00,CLR,,0.02,WeatherDisplay:10.37,2013-01-19 18:39:00,
2013-01-19 13:44:00,52.0,19.9,29.88,WSW,248,23.0,23.0,28,0.00,CLR,,0.02,WeatherDisplay:10.37,2013-01-19 18:44:00,
2013-01-19 13:49:00,53.1,20.0,29.87,SW,225,16.1,16.1,27,0.00,CLR,,0.02,WeatherDisplay:10.37,2013-01-19 18:49:00,
2013-01-19 13:54:00,53.8,21.4,29.87,SW,225,11.5,11.5,28,0.00,CLR,,0.02,WeatherDisplay:10.37,2013-01-19 18:54:00,
2013-01-19 13:59:00,53.6,20.4,29.87,SSW,202,17.3,17.3,27,0.00,CLR,,0.02,WeatherDisplay:10.37,2013-01-19 18:59:00,
2013-01-19 14:04:00,53.4,21.1,29.86,SW,225,12.7,12.7,28,0.00,CLR,,0.02,WeatherDisplay:10.37,2013-01-19 19:04:00,
2013-01-19 14:09:00,53.5,20.3,29.86,SW,233,13.0,18.0,27,0.00,CLR,,0.02,WeatherDisplay:10.37,2013-01-19 19:09:00,
2013-01-19 14:14:00,54.1,20.0,29.86,SW,235,13.0,21.0,26,0.00,CLR,,0.02,WeatherDisplay:10.37,2013-01-19 19:14:00,
2013-01-19 14:20:00,53.2,20.0,29.86,WSW,248,19.6,19.6,27,0.00,CLR,,0.02,WeatherDisplay:10.37,2013-01-19 19:20:00,
2013-01-19 14:25:00,53.4,19.3,29.86,SW,225,20.7,20.7,26,0.00,CLR,,0.02,WeatherDisplay:10.37,2013-01-19 19:25:00,
2013-01-19 14:30:00,54.1,19.9,29.85,WSW,248,16.6,16.6,26,0.00,CLR,,0.02,WeatherDisplay:10.37,2013-01-19 19:30:00,
2013-01-19 14:35:00,54.5,21.2,29.85,SW,225,16.6,16.6,27,0.00,CLR,,0.02,WeatherDisplay:10.37,2013-01-19 19:35:00,
2013-01-19 14:41:00,54.1,20.8,29.84,SW,225,16.1,16.1,27,0.00,CLR,,0.02,WeatherDisplay:10.37,2013-01-19 19:41:00,
2013-01-19 14:47:00,54.7,21.3,29.84,West,270,13.8,13.8,27,0.00,CLR,,0.02,WeatherDisplay:10.37,2013-01-19 19:47:00,
2013-01-19 14:54:00,55.0,20.7,29.84,WSW,248,15.0,15.0,26,0.00,CLR,,0.02,WeatherDisplay:10.37,2013-01-19 19:54:00,
2013-01-19 14:59:00,54.9,20.6,29.84,WSW,248,13.8,13.8,26,0.00,CLR,,0.02,WeatherDisplay:10.37,2013-01-19 19:59:00,
2013-01-19 15:05:00,54.7,21.3,29.83,SW,225,10.4,10.4,27,0.00,CLR,,0.02,WeatherDisplay:10.37,2013-01-19 20:05:00,
2013-01-19 15:10:00,54.7,21.3,29.83,SW,225,10.4,10.4,27,0.00,CLR,,0.02,WeatherDisplay:10.37,2013-01-19 20:10:00,
2013-01-19 15:15:00,54.3,21.0,29.83,WSW,248,15.0,15.0,27,0.00,CLR,,0.02,WeatherDisplay:10.37,2013-01-19 20:15:00,
2013-01-19 15:20:00,54.5,21.2,29.83,SW,225,21.9,21.9,27,0.00,CLR,,0.02,WeatherDisplay:10.37,2013-01-19 20:20:00,
2013-01-19 15:25:00,54.3,21.0,29.83,SW,225,17.3,17.3,27,0.00,CLR,,0.02,WeatherDisplay:10.37,2013-01-19 20:25:00,
2013-01-19 15:30:00,54.9,21.5,29.82,West,270,16.1,16.1,27,0.00,CLR,,0.02,WeatherDisplay:10.37,2013-01-19 20:30:00,
2013-01-19 15:35:00,54.3,21.0,29.82,SW,225,15.0,15.0,27,0.00,CLR,,0.02,WeatherDisplay:10.37,2013-01-19 20:35:00,
2013-01-19 15:40:00,54.7,21.3,29.82,SSW,202,12.4,12.4,27,0.00,CLR,,0.02,WeatherDisplay:10.37,2013-01-19 20:40:00,
2013-01-19 15:45:00,54.9,21.5,29.82,SW,225,10.4,10.4,27,0.00,CLR,,0.02,WeatherDisplay:10.37,2013-01-19 20:45:00,
2013-01-19 15:50:00,54.9,21.5,29.82,SW,225,22.7,22.7,27,0.00,CLR,,0.02,WeatherDisplay:10.37,2013-01-19 20:50:00,
2013-01-19 15:55:00,54.7,21.3,29.82,SW,225,17.3,17.3,27,0.00,CLR,,0.02,WeatherDisplay:10.37,2013-01-19 20:55:00,
2013-01-19 16:00:00,54.1,20.8,29.82,West,270,16.1,16.1,27,0.00,CLR,,0.02,WeatherDisplay:10.37,2013-01-19 21:00:00,
2013-01-19 16:05:00,54.0,20.7,29.81,WSW,248,14.0,14.0,27,0.00,CLR,,0.02,WeatherDisplay:10.37,2013-01-19 21:05:00,
2013-01-19 16:10:00,54.1,20.8,29.81,SW,225,13.8,13.8,27,0.00,CLR,,0.02,WeatherDisplay:10.37,2013-01-19 21:10:00,
2013-01-19 16:15:00,54.1,21.7,29.81,SSW,202,13.5,13.5,28,0.00,CLR,,0.02,WeatherDisplay:10.37,2013-01-19 21:15:00,
2013-01-19 16:21:00,54.0,21.6,29.81,SSW,202,17.3,17.3,28,0.00,CLR,,0.02,WeatherDisplay:10.37,2013-01-19 21:21:00,
2013-01-19 16:26:00,54.5,22.0,29.81,SW,225,10.4,10.4,28,0.00,CLR,,0.02,WeatherDisplay:10.37,2013-01-19 21:26:00,
2013-01-19 16:31:00,54.1,21.7,29.81,WSW,248,19.6,19.6,28,0.00,CLR,,0.02,WeatherDisplay:10.37,2013-01-19 21:31:00,
2013-01-19 16:37:00,53.6,22.1,29.80,SW,225,9.2,9.2,29,0.00,CLR,,0.02,WeatherDisplay:10.37,2013-01-19 21:37:00,
2013-01-19 16:42:00,53.8,22.2,29.80,SSW,202,10.4,10.4,29,0.00,CLR,,0.02,WeatherDisplay:10.37,2013-01-19 21:42:00,
2013-01-19 16:48:00,53.1,21.6,29.80,SW,225,15.0,15.0,29,0.00,CLR,,0.02,WeatherDisplay:10.37,2013-01-19 21:48:00,
2013-01-19 16:53:00,52.9,21.5,29.80,West,270,12.4,12.9,29,0.00,CLR,,0.02,WeatherDisplay:10.37,2013-01-19 21:53:00,
2013-01-19 16:58:00,52.7,21.3,29.80,WSW,248,11.5,11.5,29,0.00,CLR,,0.02,WeatherDisplay:10.37,2013-01-19 21:58:00,
2013-01-19 17:04:00,52.0,21.5,29.78,SW,225,11.5,11.5,30,0.00,CLR,,0.02,WeatherDisplay:10.37,2013-01-19 22:04:00,
2013-01-19 17:09:00,51.6,21.1,29.78,SW,225,8.1,8.1,30,0.00,CLR,,0.02,WeatherDisplay:10.37,2013-01-19 22:09:00,
2013-01-19 17:15:00,51.1,21.5,29.78,SW,226,8.0,9.0,31,0.00,CLR,,0.02,WeatherDisplay:10.37,2013-01-19 22:15:00,
2013-01-19 17:20:00,50.7,21.9,29.78,WSW,242,12.0,15.0,32,0.00,CLR,,0.02,WeatherDisplay:10.37,2013-01-19 22:20:00,
2013-01-19 17:25:00,50.0,21.3,29.78,SW,225,11.5,11.5,32,0.00,CLR,,0.02,WeatherDisplay:10.37,2013-01-19 22:25:00,
2013-01-19 17:30:00,49.8,21.8,29.78,SW,225,11.5,11.5,33,0.00,CLR,,0.02,WeatherDisplay:10.37,2013-01-19 22:30:00,
2013-01-19 17:35:00,49.5,21.5,29.78,SW,225,9.2,9.2,33,0.00,CLR,,0.02,WeatherDisplay:10.37,2013-01-19 22:35:00,
2013-01-19 17:40:00,49.5,21.5,29.78,SW,225,10.4,10.4,33,0.00,CLR,,0.02,WeatherDisplay:10.37,2013-01-19 22:40:00,
2013-01-19 17:45:00,48.9,21.0,29.78,SSE,158,10.4,10.4,33,0.00,CLR,,0.02,WeatherDisplay:10.37,2013-01-19 22:45:00,
2013-01-19 17:50:00,48.7,21.5,29.77,West,270,10.4,10.4,34,0.00,CLR,,0.02,WeatherDisplay:10.37,2013-01-19 22:50:00,
2013-01-19 17:55:00,48.4,21.3,29.77,SW,225,8.1,8.1,34,0.00,CLR,,0.02,WeatherDisplay:10.37,2013-01-19 22:55:00,
2013-01-19 18:00:00,48.4,21.3,29.77,WSW,248,8.1,8.1,34,0.00,CLR,,0.02,WeatherDisplay:10.37,2013-01-19 23:00:00,
2013-01-19 18:05:00,48.4,21.3,29.77,SW,225,10.4,10.4,34,0.00,CLR,,0.02,WeatherDisplay:10.37,2013-01-19 23:05:00,
2013-01-19 18:11:00,48.4,21.3,29.77,SSW,202,10.4,10.4,34,0.00,CLR,,0.02,WeatherDisplay:10.37,2013-01-19 23:11:00,
2013-01-19 18:16:00,48.0,20.9,29.77,SW,225,9.4,9.4,34,0.00,CLR,,0.02,WeatherDisplay:10.37,2013-01-19 23:16:00,
2013-01-19 18:22:00,47.8,20.8,29.77,WSW,248,7.3,7.3,34,0.00,CLR,,0.02,WeatherDisplay:10.37,2013-01-19 23:22:00,
2013-01-19 18:28:00,47.8,20.8,29.77,SW,225,8.1,8.1,34,0.00,CLR,,0.02,WeatherDisplay:10.37,2013-01-19 23:28:00,
2013-01-19 18:33:00,47.7,20.7,29.77,WSW,248,5.8,5.8,34,0.00,CLR,,0.02,WeatherDisplay:10.37,2013-01-19 23:33:00,
2013-01-19 18:38:00,47.5,21.2,29.77,SSW,202,6.8,6.8,35,0.00,CLR,,0.02,WeatherDisplay:10.37,2013-01-19 23:38:00,
2013-01-19 18:43:00,47.3,21.0,29.77,SW,225,7.3,7.3,35,0.00,CLR,,0.02,WeatherDisplay:10.37,2013-01-19 23:43:00,
2013-01-19 18:48:00,46.9,20.6,29.77,SW,225,5.8,5.8,35,0.00,CLR,,0.02,WeatherDisplay:10.37,2013-01-19 23:48:00,
2013-01-19 18:54:00,47.5,21.2,29.77,SSW,202,8.1,8.1,35,0.00,CLR,,0.02,WeatherDisplay:10.37,2013-01-19 23:54:00,
2013-01-19 18:59:00,47.3,21.0,29.77,WSW,248,8.1,8.1,35,0.00,CLR,,0.02,WeatherDisplay:10.37,2013-01-19 23:59:00,
2013-01-19 19:04:00,47.1,20.8,29.76,WSW,248,8.1,8.1,35,0.00,CLR,,0.02,WeatherDisplay:10.37,2013-01-20 00:04:00,
2013-01-19 19:09:00,46.9,21.3,29.76,SW,225,6.3,6.3,36,0.00,CLR,,0.02,WeatherDisplay:10.37,2013-01-20 00:09:00,
2013-01-19 19:14:00,47.3,21.0,29.76,SSW,202,12.7,12.7,35,0.00,CLR,,0.02,WeatherDisplay:10.37,2013-01-20 00:14:00,
2013-01-19 19:19:00,47.1,20.8,29.76,WSW,248,9.2,9.2,35,0.00,CLR,,0.02,WeatherDisplay:10.37,2013-01-20 00:19:00,
2013-01-19 19:24:00,47.1,20.8,29.76,SW,225,9.2,9.2,35,0.00,CLR,,0.02,WeatherDisplay:10.37,2013-01-20 00:24:00,
2013-01-19 19:29:00,46.9,20.6,29.76,SSW,202,9.2,9.2,35,0.00,CLR,,0.02,WeatherDisplay:10.37,2013-01-20 00:29:00,
2013-01-19 19:34:00,46.6,21.0,29.76,SW,225,5.8,5.8,36,0.00,CLR,,0.02,WeatherDisplay:10.37,2013-01-20 00:34:00,
2013-01-19 19:39:00,46.4,20.9,29.75,SW,225,5.8,5.8,36,0.00,CLR,,0.02,WeatherDisplay:10.37,2013-01-20 00:39:00,
2013-01-19 19:44:00,46.4,20.9,29.75,SSW,202,8.1,8.1,36,0.00,CLR,,0.02,WeatherDisplay:10.37,2013-01-20 00:44:00,
2013-01-19 19:49:00,46.8,21.2,29.75,WSW,248,6.9,6.9,36,0.00,CLR,,0.02,WeatherDisplay:10.37,2013-01-20 00:49:00,
2013-01-19 19:54:00,46.6,21.0,29.75,WSW,248,9.2,9.2,36,0.00,CLR,,0.02,WeatherDisplay:10.37,2013-01-20 00:54:00,
2013-01-19 19:59:00,46.4,20.9,29.75,SSW,202,8.1,8.1,36,0.00,CLR,,0.02,WeatherDisplay:10.37,2013-01-20 00:59:00,
2013-01-19 20:04:00,46.2,20.7,29.75,SW,225,6.9,6.9,36,0.00,CLR,,0.02,WeatherDisplay:10.37,2013-01-20 01:04:00,
2013-01-19 20:09:00,46.0,20.5,29.75,West,270,7.8,7.8,36,0.00,CLR,,0.02,WeatherDisplay:10.37,2013-01-20 01:09:00,
2013-01-19 20:14:00,46.2,20.7,29.74,SW,225,9.2,9.2,36,0.00,CLR,,0.02,WeatherDisplay:10.37,2013-01-20 01:14:00,
2013-01-19 20:19:00,46.0,20.5,29.74,SW,225,6.9,6.9,36,0.00,CLR,,0.02,WeatherDisplay:10.37,2013-01-20 01:19:00,
2013-01-19 20:24:00,46.4,20.9,29.74,SSW,202,12.7,12.7,36,0.00,CLR,,0.02,WeatherDisplay:10.37,2013-01-20 01:24:00,
2013-01-19 20:29:00,46.0,21.1,29.73,SW,225,6.9,6.9,37,0.00,CLR,,0.02,WeatherDisplay:10.37,2013-01-20 01:29:00,
2013-01-19 20:34:00,45.7,20.9,29.73,South,180,5.8,7.4,37,0.00,CLR,,0.02,WeatherDisplay:10.37,2013-01-20 01:34:00,
2013-01-19 20:39:00,46.2,21.3,29.72,SW,225,13.8,13.8,37,0.00,CLR,,0.02,WeatherDisplay:10.37,2013-01-20 01:39:00,
2013-01-19 20:44:00,46.4,21.5,29.72,SSW,212,9.0,16.0,37,0.00,CLR,,0.02,WeatherDisplay:10.37,2013-01-20 01:44:00,
2013-01-19 20:49:00,46.4,21.5,29.72,SW,220,9.0,10.0,37,0.00,CLR,,0.02,WeatherDisplay:10.37,2013-01-20 01:49:00,
2013-01-19 20:55:00,46.4,21.5,29.72,SW,225,8.8,8.8,37,0.00,CLR,,0.02,WeatherDisplay:10.37,2013-01-20 01:55:00,
2013-01-19 21:01:00,46.6,21.7,29.72,WSW,248,10.4,10.4,37,0.00,CLR,,0.02,WeatherDisplay:10.37,2013-01-20 02:01:00,
2013-01-19 21:06:00,46.6,21.7,29.72,SW,225,11.5,11.5,37,0.00,CLR,,0.02,WeatherDisplay:10.37,2013-01-20 02:06:00,
2013-01-19 21:12:00,46.6,21.7,29.72,SSW,202,8.1,8.1,37,0.00,CLR,,0.02,WeatherDisplay:10.37,2013-01-20 02:12:00,
2013-01-19 21:17:00,46.6,21.7,29.71,WSW,248,8.1,8.1,37,0.00,CLR,,0.02,WeatherDisplay:10.37,2013-01-20 02:17:00,
2013-01-19 21:22:00,46.6,21.7,29.71,SW,225,8.3,8.3,37,0.00,CLR,,0.02,WeatherDisplay:10.37,2013-01-20 02:22:00,
2013-01-19 21:28:00,46.9,22.0,29.70,West,270,10.4,10.4,37,0.00,CLR,,0.02,WeatherDisplay:10.37,2013-01-20 02:28:00,
2013-01-19 21:33:00,46.6,22.3,29.70,SW,225,8.8,8.9,38,0.00,CLR,,0.02,WeatherDisplay:10.37,2013-01-20 02:33:00,
2013-01-19 21:39:00,46.8,22.5,29.71,SW,225,9.2,9.2,38,0.00,CLR,,0.02,WeatherDisplay:10.37,2013-01-20 02:39:00,
2013-01-19 21:44:00,46.9,22.0,29.71,ENE,68,9.2,9.2,37,0.00,CLR,,0.02,WeatherDisplay:10.37,2013-01-20 02:44:00,
2013-01-19 21:49:00,46.9,22.0,29.71,SW,225,10.4,10.4,37,0.00,CLR,,0.02,WeatherDisplay:10.37,2013-01-20 02:49:00,
2013-01-19 21:54:00,46.9,22.0,29.71,WSW,237,12.0,16.0,37,0.00,CLR,,0.02,WeatherDisplay:10.37,2013-01-20 02:54:00,
2013-01-19 22:00:00,46.9,22.0,29.71,WSW,248,9.2,9.2,37,0.00,CLR,,0.02,WeatherDisplay:10.37,2013-01-20 03:00:00,
2013-01-19 22:05:00,46.9,22.0,29.70,SSW,202,17.1,17.1,37,0.00,CLR,,0.02,WeatherDisplay:10.37,2013-01-20 03:05:00,
2013-01-19 22:10:00,46.8,22.5,29.70,WSW,248,12.4,12.4,38,0.00,CLR,,0.02,WeatherDisplay:10.37,2013-01-20 03:10:00,
2013-01-19 22:15:00,47.1,22.8,29.70,SW,225,14.0,14.0,38,0.00,CLR,,0.02,WeatherDisplay:10.37,2013-01-20 03:15:00,
2013-01-19 22:20:00,46.9,22.6,29.70,SSW,202,12.7,12.7,38,0.00,CLR,,0.02,WeatherDisplay:10.37,2013-01-20 03:20:00,
2013-01-19 22:25:00,46.6,22.3,29.70,SW,225,10.4,10.4,38,0.00,CLR,,0.02,WeatherDisplay:10.37,2013-01-20 03:25:00,
2013-01-19 22:30:00,46.8,22.5,29.70,SW,225,11.9,11.9,38,0.00,CLR,,0.02,WeatherDisplay:10.37,2013-01-20 03:30:00,
2013-01-19 22:36:00,46.8,22.5,29.70,West,270,10.4,10.4,38,0.00,CLR,,0.02,WeatherDisplay:10.37,2013-01-20 03:36:00,
2013-01-19 22:41:00,46.9,22.6,29.71,SW,225,12.7,12.7,38,0.00,CLR,,0.02,WeatherDisplay:10.37,2013-01-20 03:41:00,
2013-01-19 22:46:00,47.1,22.8,29.71,WSW,248,11.5,11.5,38,0.00,CLR,,0.02,WeatherDisplay:10.37,2013-01-20 03:46:00,
2013-01-19 22:51:00,46.9,23.2,29.71,SSW,202,11.5,14.0,39,0.00,CLR,,0.02,WeatherDisplay:10.37,2013-01-20 03:51:00,
2013-01-19 22:57:00,47.3,22.9,29.71,WSW,248,12.7,12.7,38,0.00,CLR,,0.02,WeatherDisplay:10.37,2013-01-20 03:57:00,
2013-01-19 23:02:00,47.3,23.6,29.70,SW,225,17.3,17.3,39,0.00,CLR,,0.02,WeatherDisplay:10.37,2013-01-20 04:02:00,
2013-01-19 23:07:00,47.7,23.3,29.70,SW,225,14.0,14.0,38,0.00,CLR,,0.02,WeatherDisplay:10.37,2013-01-20 04:07:00,
2013-01-19 23:13:00,47.7,23.3,29.70,SW,225,20.7,20.7,38,0.00,CLR,,0.02,WeatherDisplay:10.37,2013-01-20 04:13:00,
2013-01-19 23:18:00,47.5,23.7,29.70,SSW,202,19.6,19.6,39,0.00,CLR,,0.02,WeatherDisplay:10.37,2013-01-20 04:18:00,
2013-01-19 23:23:00,47.5,23.7,29.70,SW,225,18.1,18.1,39,0.00,CLR,,0.02,WeatherDisplay:10.37,2013-01-20 04:23:00,
2013-01-19 23:28:00,47.1,24.0,29.70,SW,225,17.6,17.6,40,0.00,CLR,,0.02,WeatherDisplay:10.37,2013-01-20 04:28:00,
2013-01-19 23:33:00,47.3,24.2,29.70,SW,225,19.6,19.6,40,0.00,CLR,,0.02,WeatherDisplay:10.37,2013-01-20 04:33:00,
2013-01-19 23:38:00,47.5,24.3,29.69,WSW,248,21.9,21.9,40,0.00,CLR,,0.02,WeatherDisplay:10.37,2013-01-20 04:38:00,
2013-01-19 23:44:00,47.3,24.2,29.69,SSW,202,11.9,11.9,40,0.00,CLR,,0.02,WeatherDisplay:10.37,2013-01-20 04:44:00,
2013-01-19 23:49:00,46.9,24.4,29.69,SW,225,11.5,11.5,41,0.00,CLR,,0.02,WeatherDisplay:10.37,2013-01-20 04:49:00,
2013-01-19 23:54:00,46.8,24.3,29.69,WSW,248,16.1,16.1,41,0.00,CLR,,0.02,WeatherDisplay:10.37,2013-01-20 04:54:00,
2013-01-19 23:59:00,46.9,24.4,29.69,SW,225,20.7,20.7,41,0.00,CLR,,0.02,WeatherDisplay:10.37,2013-01-20 04:59:00,